createdAt,value
2023-03-19T00:00:14.450Z,9.98
2023-03-19T00:01:14.445Z,10.07
2023-03-19T00:02:18.045Z,10.15
2023-03-19T00:03:14.568Z,10.07
2023-03-19T00:04:14.432Z,10.05
2023-03-19T00:05:14.430Z,10.02
2023-03-19T00:06:14.423Z,10.09
2023-03-19T00:07:14.424Z,10.10
2023-03-19T00:08:14.417Z,10.07
2023-03-19T00:09:14.437Z,10.04
2023-03-19T00:10:14.426Z,9.99
2023-03-19T00:11:14.408Z,10.10
2023-03-19T00:12:14.410Z,10.09
2023-03-19T00:13:14.404Z,10.02
2023-03-19T00:14:14.403Z,10.12
2023-03-19T00:15:14.786Z,10.10
2023-03-19T00:16:14.431Z,10.02
2023-03-19T00:17:14.388Z,10.07
2023-03-19T00:18:14.397Z,9.91
2023-03-19T00:19:14.380Z,9.97
2023-03-19T00:20:14.378Z,10.04
2023-03-19T00:21:14.376Z,9.95
2023-03-19T00:22:14.372Z,9.95
2023-03-19T00:23:14.365Z,9.98
2023-03-19T00:24:14.366Z,10.04
2023-03-19T00:25:14.489Z,9.92
2023-03-19T00:26:14.354Z,9.92
2023-03-19T00:27:14.353Z,9.95
2023-03-19T00:28:14.387Z,9.97
2023-03-19T00:29:14.346Z,9.99
2023-03-19T00:30:14.345Z,9.99
2023-03-19T00:31:14.420Z,9.94
2023-03-19T00:32:14.335Z,9.92
2023-03-19T00:33:14.360Z,9.99
2023-03-19T00:34:14.330Z,9.82
2023-03-19T00:35:14.319Z,9.92
2023-03-19T00:36:14.391Z,9.82
2023-03-19T00:37:14.317Z,9.69
2023-03-19T00:38:14.346Z,9.65
2023-03-19T00:39:14.312Z,9.55
2023-03-19T00:40:14.306Z,9.50
2023-03-19T00:41:14.318Z,9.31
2023-03-19T00:42:14.299Z,9.34
2023-03-19T00:43:14.290Z,9.18
2023-03-19T00:44:14.290Z,9.13
2023-03-19T00:45:14.299Z,9.02
2023-03-19T00:46:14.355Z,9.08
2023-03-19T00:47:14.283Z,9.06
2023-03-19T00:48:14.274Z,9.04
2023-03-19T00:49:14.272Z,9.06
2023-03-19T00:50:14.270Z,9.02
2023-03-19T00:51:14.618Z,8.99
2023-03-19T00:52:14.259Z,9.10
2023-03-19T00:53:14.257Z,9.08
2023-03-19T00:54:14.257Z,8.92
2023-03-19T00:55:14.247Z,8.92
2023-03-19T00:56:14.266Z,8.82
2023-03-19T00:57:14.269Z,8.73
2023-03-19T00:58:14.236Z,8.73
2023-03-19T00:59:14.238Z,8.71
2023-03-19T01:00:53.830Z,8.56
2023-03-19T01:01:53.721Z,8.64
2023-03-19T01:02:53.715Z,8.49
2023-03-19T01:03:53.723Z,8.52
2023-03-19T01:04:53.709Z,8.52
2023-03-19T01:05:53.709Z,8.58
2023-03-19T01:06:53.702Z,8.55
2023-03-19T01:07:53.694Z,8.55
2023-03-19T01:08:53.689Z,8.51
2023-03-19T01:09:53.685Z,8.48
2023-03-19T01:10:53.687Z,8.49
2023-03-19T01:11:53.679Z,8.51
2023-03-19T01:12:53.692Z,8.46
2023-03-19T01:13:53.675Z,8.53
2023-03-19T01:14:53.665Z,8.52
2023-03-19T01:15:53.666Z,8.56
2023-03-19T01:16:53.658Z,8.55
2023-03-19T01:17:53.662Z,8.51
2023-03-19T01:18:53.667Z,8.56
2023-03-19T01:19:53.645Z,8.58
2023-03-19T01:20:53.642Z,8.60
2023-03-19T01:21:53.638Z,8.63
2023-03-19T01:22:53.634Z,8.64
2023-03-19T01:23:53.632Z,8.60
2023-03-19T01:24:53.626Z,8.52
2023-03-19T01:25:53.624Z,8.53
2023-03-19T01:26:53.633Z,8.36
2023-03-19T01:27:53.614Z,8.34
2023-03-19T01:28:53.644Z,8.37
2023-03-19T01:29:53.604Z,8.27
2023-03-19T01:30:53.637Z,8.23
2023-03-19T01:31:53.600Z,8.23
2023-03-19T01:32:53.614Z,8.19
2023-03-19T01:33:53.589Z,8.20
2023-03-19T01:34:53.589Z,8.20
2023-03-19T01:35:53.599Z,8.34
2023-03-19T01:36:53.578Z,8.24
2023-03-19T01:37:53.571Z,8.23
2023-03-19T01:38:53.571Z,8.16
2023-03-19T01:39:53.569Z,8.20
2023-03-19T01:40:53.565Z,8.16
2023-03-19T01:41:53.557Z,8.06
2023-03-19T01:42:53.560Z,7.97
2023-03-19T01:43:53.552Z,8.01
2023-03-19T01:44:53.570Z,7.98
2023-03-19T01:45:53.540Z,7.94
2023-03-19T01:46:53.544Z,7.98
2023-03-19T01:47:53.530Z,8.03
2023-03-19T01:48:53.533Z,8.06
2023-03-19T01:49:53.525Z,8.06
2023-03-19T01:50:53.520Z,8.12
2023-03-19T01:51:53.520Z,8.16
2023-03-19T01:52:53.517Z,8.24
2023-03-19T01:53:53.509Z,8.20
2023-03-19T01:54:53.507Z,8.33
2023-03-19T01:55:53.496Z,8.31
2023-03-19T01:56:53.496Z,8.24
2023-03-19T01:57:53.491Z,8.41
2023-03-19T01:58:53.485Z,8.31
2023-03-19T01:59:53.478Z,8.36
2023-03-19T02:00:53.502Z,8.26
2023-03-19T02:01:53.646Z,8.16
2023-03-19T02:02:53.486Z,8.13
2023-03-19T02:03:53.468Z,8.10
2023-03-19T02:04:53.544Z,7.95
2023-03-19T02:05:53.464Z,7.93
2023-03-19T02:06:53.455Z,7.85
2023-03-19T02:07:53.448Z,7.73
2023-03-19T02:08:53.444Z,7.63
2023-03-19T02:09:53.443Z,7.58
2023-03-19T02:10:53.438Z,7.60
2023-03-19T02:11:53.432Z,7.63
2023-03-19T02:12:53.458Z,7.70
2023-03-19T02:13:53.439Z,7.60
2023-03-19T02:14:53.420Z,7.66
2023-03-19T02:15:53.455Z,7.61
2023-03-19T02:16:53.434Z,7.61
2023-03-19T02:17:53.406Z,7.61
2023-03-19T02:18:53.400Z,7.66
2023-03-19T02:19:53.398Z,7.69
2023-03-19T02:20:53.393Z,7.58
2023-03-19T02:21:53.389Z,7.63
2023-03-19T02:22:53.424Z,7.58
2023-03-19T02:23:53.398Z,7.63
2023-03-19T02:24:53.376Z,7.58
2023-03-19T02:25:53.369Z,7.75
2023-03-19T02:26:53.366Z,7.72
2023-03-19T02:27:53.360Z,7.70
2023-03-19T02:28:53.366Z,7.75
2023-03-19T02:29:53.356Z,7.79
2023-03-19T02:30:53.347Z,7.87
2023-03-19T02:31:53.345Z,7.98
2023-03-19T02:32:53.420Z,7.98
2023-03-19T02:33:53.334Z,7.90
2023-03-19T02:34:53.332Z,7.98
2023-03-19T02:35:53.404Z,8.09
2023-03-19T02:36:53.331Z,8.13
2023-03-19T02:37:53.317Z,8.10
2023-03-19T02:38:53.313Z,8.09
2023-03-19T02:39:53.326Z,8.16
2023-03-19T02:40:53.309Z,8.18
2023-03-19T02:41:53.309Z,8.18
2023-03-19T02:43:53.292Z,8.15
2023-03-19T02:45:53.282Z,8.20
2023-03-19T02:46:53.389Z,8.19
2023-03-19T02:47:53.271Z,8.19
2023-03-19T02:48:53.295Z,8.20
2023-03-19T02:49:53.265Z,8.28
2023-03-19T02:50:54.042Z,8.33
2023-03-19T02:51:53.259Z,8.38
2023-03-19T02:52:53.455Z,8.36
2023-03-19T02:53:53.248Z,8.45
2023-03-19T02:54:53.243Z,8.42
2023-03-19T02:55:53.251Z,8.45
2023-03-19T02:56:53.240Z,8.48
2023-03-19T02:57:53.232Z,8.51
2023-03-19T02:58:53.230Z,8.49
2023-03-19T02:59:53.235Z,8.52
2023-03-19T03:00:53.272Z,8.53
2023-03-19T03:01:53.261Z,8.53
2023-03-19T03:02:53.221Z,8.61
2023-03-19T03:03:53.213Z,8.56
2023-03-19T03:04:53.226Z,8.58
2023-03-19T03:05:53.203Z,8.58
2023-03-19T03:06:53.207Z,8.51
2023-03-19T03:07:53.196Z,8.60
2023-03-19T03:08:53.202Z,8.52
2023-03-19T03:09:53.191Z,8.60
2023-03-19T03:10:53.191Z,8.58
2023-03-19T03:11:53.179Z,8.60
2023-03-19T03:12:53.182Z,8.63
2023-03-19T03:13:53.184Z,8.66
2023-03-19T03:14:53.172Z,8.64
2023-03-19T03:15:53.163Z,8.61
2023-03-19T03:16:53.164Z,8.61
2023-03-19T03:17:53.159Z,8.63
2023-03-19T03:19:53.149Z,8.60
2023-03-19T03:20:53.160Z,8.69
2023-03-19T03:21:53.146Z,8.67
2023-03-19T03:22:53.140Z,8.74
2023-03-19T03:23:53.133Z,8.74
2023-03-19T03:24:53.126Z,8.78
2023-03-19T03:25:53.130Z,8.70
2023-03-19T03:26:53.118Z,8.71
2023-03-19T03:27:53.132Z,8.78
2023-03-19T03:28:53.112Z,8.78
2023-03-19T03:29:53.111Z,8.81
2023-03-19T03:30:53.104Z,8.79
2023-03-19T03:31:53.170Z,8.82
2023-03-19T03:32:53.184Z,8.82
2023-03-19T03:33:53.104Z,8.85
2023-03-19T03:34:53.087Z,8.78
2023-03-19T03:35:53.127Z,8.74
2023-03-19T03:36:53.103Z,8.81
2023-03-19T03:37:53.477Z,8.87
2023-03-19T03:38:53.073Z,8.88
2023-03-19T03:39:53.073Z,8.84
2023-03-19T03:40:53.064Z,8.92
2023-03-19T03:41:53.061Z,8.82
2023-03-19T03:42:53.058Z,8.82
2023-03-19T03:43:53.060Z,8.94
2023-03-19T03:44:53.051Z,8.92
2023-03-19T03:45:53.168Z,8.95
2023-03-19T03:46:53.040Z,8.94
2023-03-19T03:47:53.043Z,8.92
2023-03-19T03:48:53.033Z,8.97
2023-03-19T03:49:53.035Z,8.89
2023-03-19T03:50:53.038Z,8.88
2023-03-19T03:51:53.039Z,8.87
2023-03-19T03:52:53.041Z,8.97
2023-03-19T03:53:53.018Z,8.91
2023-03-19T03:54:53.008Z,8.89
2023-03-19T03:55:53.008Z,8.95
2023-03-19T03:56:53.004Z,9.03
2023-03-19T03:57:52.998Z,8.99
2023-03-19T03:58:52.995Z,9.08
2023-03-19T03:59:52.998Z,8.97
2023-03-19T04:00:52.983Z,9.03
2023-03-19T04:01:53.051Z,9.13
2023-03-19T04:02:53.002Z,9.08
2023-03-19T04:03:52.997Z,9.19
2023-03-19T04:04:52.976Z,9.14
2023-03-19T04:05:52.995Z,9.18
2023-03-19T04:06:52.957Z,9.11
2023-03-19T04:07:52.970Z,9.06
2023-03-19T04:08:52.972Z,9.10
2023-03-19T04:09:52.948Z,9.13
2023-03-19T04:10:52.948Z,9.19
2023-03-19T04:11:52.957Z,9.19
2023-03-19T04:12:52.945Z,9.16
2023-03-19T04:13:52.942Z,9.18
2023-03-19T04:14:52.927Z,9.14
2023-03-19T04:15:52.922Z,9.14
2023-03-19T04:16:53.057Z,9.18
2023-03-19T04:17:52.916Z,9.22
2023-03-19T04:18:52.908Z,9.22
2023-03-19T04:19:52.911Z,9.22
2023-03-19T04:20:52.902Z,9.29
2023-03-19T04:21:52.912Z,9.22
2023-03-19T04:22:52.896Z,9.28
2023-03-19T04:23:52.892Z,9.29
2023-03-19T04:24:52.910Z,9.32
2023-03-19T04:25:52.918Z,9.36
2023-03-19T04:26:52.883Z,9.36
2023-03-19T04:27:52.894Z,9.36
2023-03-19T04:28:52.871Z,9.34
2023-03-19T04:29:52.873Z,9.32
2023-03-19T04:30:52.896Z,9.29
2023-03-19T04:31:52.860Z,9.43
2023-03-19T04:32:52.887Z,9.40
2023-03-19T04:33:52.852Z,9.40
2023-03-19T04:34:52.854Z,9.39
2023-03-19T04:35:52.902Z,9.43
2023-03-19T04:36:52.845Z,9.46
2023-03-19T04:37:52.839Z,9.44
2023-03-19T04:38:52.833Z,9.41
2023-03-19T04:39:52.829Z,9.40
2023-03-19T04:40:52.840Z,9.41
2023-03-19T04:41:52.821Z,9.43
2023-03-19T04:42:52.816Z,9.43
2023-03-19T04:43:52.813Z,9.43
2023-03-19T04:44:52.810Z,9.44
2023-03-19T04:45:52.875Z,9.44
2023-03-19T04:46:52.799Z,9.46
2023-03-19T04:47:52.807Z,9.44
2023-03-19T04:48:52.796Z,9.44
2023-03-19T04:49:52.797Z,9.39
2023-03-19T04:50:52.783Z,9.44
2023-03-19T04:51:52.779Z,9.50
2023-03-19T04:52:52.775Z,9.43
2023-03-19T04:53:52.775Z,9.48
2023-03-19T04:54:52.788Z,9.48
2023-03-19T04:55:52.770Z,9.48
2023-03-19T04:56:52.786Z,9.50
2023-03-19T04:57:52.771Z,9.55
2023-03-19T04:58:52.751Z,9.58
2023-03-19T04:59:52.752Z,9.58
2023-03-19T05:00:52.741Z,9.61
2023-03-19T05:01:52.749Z,9.58
2023-03-19T05:02:52.754Z,9.59
2023-03-19T05:03:52.773Z,9.56
2023-03-19T05:04:52.739Z,9.58
2023-03-19T05:05:52.728Z,9.56
2023-03-19T05:06:52.722Z,9.56
2023-03-19T05:07:52.721Z,9.55
2023-03-19T05:08:52.713Z,9.51
2023-03-19T05:09:52.711Z,9.58
2023-03-19T05:10:52.705Z,9.59
2023-03-19T05:11:52.709Z,9.65
2023-03-19T05:12:52.723Z,9.61
2023-03-19T05:13:52.701Z,9.64
2023-03-19T05:14:52.694Z,9.59
2023-03-19T05:15:52.735Z,9.66
2023-03-19T05:16:52.688Z,9.56
2023-03-19T05:17:52.679Z,9.62
2023-03-19T05:18:52.881Z,9.68
2023-03-19T05:19:52.670Z,9.69
2023-03-19T05:20:52.672Z,9.69
2023-03-19T05:21:52.666Z,9.69
2023-03-19T05:22:52.665Z,9.66
2023-03-19T05:23:52.700Z,9.66
2023-03-19T05:24:52.660Z,9.69
2023-03-19T05:25:52.649Z,9.68
2023-03-19T05:26:52.647Z,9.72
2023-03-19T05:27:52.639Z,9.66
2023-03-19T05:28:52.663Z,9.69
2023-03-19T05:29:52.640Z,9.66
2023-03-19T05:30:52.680Z,9.68
2023-03-19T05:31:52.630Z,9.65
2023-03-19T05:32:52.667Z,9.69
2023-03-19T05:33:52.625Z,9.65
2023-03-19T05:34:52.618Z,9.68
2023-03-19T05:35:52.640Z,9.68
2023-03-19T05:36:52.616Z,9.69
2023-03-19T05:37:52.605Z,9.69
2023-03-19T05:38:52.615Z,9.74
2023-03-19T05:39:52.596Z,9.74
2023-03-19T05:40:52.612Z,9.68
2023-03-19T05:42:52.841Z,9.80
2023-03-19T05:43:52.584Z,9.80
2023-03-19T05:44:52.595Z,9.84
2023-03-19T05:45:52.691Z,9.80
2023-03-19T05:46:52.644Z,9.72
2023-03-19T05:47:52.565Z,9.69
2023-03-19T05:48:52.562Z,9.69
2023-03-19T05:49:52.966Z,9.68
2023-03-19T05:50:52.562Z,9.77
2023-03-19T05:51:52.567Z,9.87
2023-03-19T05:53:52.542Z,9.77
2023-03-19T05:54:52.551Z,9.82
2023-03-19T05:56:52.540Z,9.80
2023-03-19T05:57:52.544Z,9.84
2023-03-19T05:58:52.534Z,9.89
2023-03-19T06:00:52.539Z,9.83
2023-03-19T06:01:52.603Z,9.83
2023-03-19T06:02:52.532Z,9.82
2023-03-19T06:03:52.525Z,9.84
2023-03-19T06:04:52.509Z,9.76
2023-03-19T06:05:52.520Z,9.83
2023-03-19T06:07:52.488Z,9.83
2023-03-19T06:08:52.483Z,9.84
2023-03-19T06:09:52.488Z,9.94
2023-03-19T06:10:52.474Z,9.82
2023-03-19T06:11:52.473Z,9.86
2023-03-19T06:12:52.483Z,9.87
2023-03-19T06:13:52.477Z,9.89
2023-03-19T06:15:52.497Z,9.95
2023-03-19T06:18:55.055Z,9.97
2023-03-19T06:19:55.031Z,9.91
2023-03-19T06:20:55.034Z,9.91
2023-03-19T06:21:55.024Z,9.92
2023-03-19T06:23:55.420Z,9.89
2023-03-19T06:25:55.013Z,10.01
2023-03-19T06:26:55.006Z,10.04
2023-03-19T06:27:55.004Z,10.07
2023-03-19T06:28:55.004Z,9.98
2023-03-19T06:29:54.993Z,10.05
2023-03-19T06:30:54.993Z,10.02
2023-03-19T06:31:57.878Z,10.05
2023-03-19T06:32:55.062Z,10.07
2023-03-19T06:33:54.992Z,10.13
2023-03-19T06:34:55.010Z,10.13
2023-03-19T06:35:54.993Z,10.10
2023-03-19T06:36:54.973Z,10.07
2023-03-19T06:37:54.971Z,10.09
2023-03-19T06:38:54.966Z,10.04
2023-03-19T06:39:54.968Z,10.04
2023-03-19T06:40:54.958Z,10.05
2023-03-19T06:42:54.950Z,10.07
2023-03-19T06:44:54.943Z,10.07
2023-03-19T06:45:54.976Z,10.09
2023-03-19T06:46:54.936Z,10.07
2023-03-19T06:47:54.932Z,10.09
2023-03-19T06:48:54.930Z,10.07
2023-03-19T06:49:54.937Z,10.12
2023-03-19T06:50:54.958Z,10.07
2023-03-19T06:51:54.918Z,10.09
2023-03-19T06:52:54.919Z,10.17
2023-03-19T06:53:54.937Z,10.13
2023-03-19T06:54:54.911Z,10.19
2023-03-19T06:55:54.907Z,10.15
2023-03-19T06:56:54.904Z,10.20
2023-03-19T06:57:54.897Z,10.17
2023-03-19T06:58:54.913Z,10.20
2023-03-19T06:59:54.899Z,10.16
2023-03-19T07:00:54.915Z,10.19
2023-03-19T07:01:54.883Z,10.17
2023-03-19T07:02:54.880Z,10.12
2023-03-19T07:03:54.903Z,10.10
2023-03-19T07:04:54.875Z,10.10
2023-03-19T07:05:54.872Z,10.10
2023-03-19T07:06:54.901Z,10.17
2023-03-19T07:07:54.867Z,10.17
2023-03-19T07:08:54.917Z,10.19
2023-03-19T07:09:54.861Z,10.23
2023-03-19T07:10:54.849Z,10.19
2023-03-19T07:11:54.852Z,10.20
2023-03-19T07:12:54.847Z,10.19
2023-03-19T07:13:54.838Z,10.16
2023-03-19T07:14:54.836Z,10.30
2023-03-19T07:15:54.828Z,10.20
2023-03-19T07:16:54.833Z,10.25
2023-03-19T07:17:54.820Z,10.26
2023-03-19T07:18:54.818Z,10.22
2023-03-19T07:19:54.813Z,10.23
2023-03-19T07:20:54.813Z,10.20
2023-03-19T07:21:54.810Z,10.22
2023-03-19T07:22:54.837Z,10.26
2023-03-19T07:23:54.806Z,10.34
2023-03-19T07:24:54.800Z,10.33
2023-03-19T07:25:54.789Z,10.40
2023-03-19T07:26:54.793Z,10.34
2023-03-19T07:27:56.079Z,10.37
2023-03-19T07:28:54.783Z,10.40
2023-03-19T07:29:54.787Z,10.42
2023-03-19T07:30:54.793Z,10.38
2023-03-19T07:31:54.824Z,10.40
2023-03-19T07:32:54.855Z,10.41
2023-03-19T07:33:54.779Z,10.44
2023-03-19T07:34:54.769Z,10.48
2023-03-19T07:35:54.793Z,10.41
2023-03-19T07:36:54.760Z,10.49
2023-03-19T07:37:54.786Z,10.48
2023-03-19T07:38:54.765Z,10.53
2023-03-19T07:39:54.749Z,10.54
2023-03-19T07:41:01.973Z,10.56
2023-03-19T07:41:54.738Z,10.53
2023-03-19T07:42:54.930Z,10.56
2023-03-19T07:43:54.724Z,10.63
2023-03-19T07:44:54.721Z,10.53
2023-03-19T07:45:54.794Z,10.67
2023-03-19T07:46:54.714Z,10.56
2023-03-19T07:47:54.728Z,10.54
2023-03-19T07:48:54.712Z,10.60
2023-03-19T07:49:54.717Z,10.59
2023-03-19T07:50:54.704Z,10.59
2023-03-19T07:51:54.698Z,10.68
2023-03-19T07:52:54.694Z,10.54
2023-03-19T07:53:54.687Z,10.49
2023-03-19T07:54:54.703Z,10.54
2023-03-19T07:55:54.681Z,10.57
2023-03-19T07:56:54.678Z,10.63
2023-03-19T07:57:54.673Z,10.68
2023-03-19T07:58:54.680Z,10.68
2023-03-19T07:59:54.694Z,10.71
2023-03-19T08:00:54.672Z,10.63
2023-03-19T08:01:54.703Z,10.63
2023-03-19T08:02:54.656Z,10.69
2023-03-19T08:03:54.653Z,10.57
2023-03-19T08:04:54.683Z,10.64
2023-03-19T08:05:54.644Z,10.68
2023-03-19T08:06:54.644Z,10.63
2023-03-19T08:07:54.638Z,10.56
2023-03-19T08:08:54.641Z,10.63
2023-03-19T08:09:54.635Z,10.64
2023-03-19T08:10:54.649Z,10.49
2023-03-19T08:11:54.627Z,10.57
2023-03-19T08:12:54.620Z,10.68
2023-03-19T08:13:54.619Z,10.63
2023-03-19T08:14:54.613Z,10.63
2023-03-19T08:15:54.608Z,10.64
2023-03-19T08:16:54.652Z,10.61
2023-03-19T08:17:54.603Z,10.60
2023-03-19T08:18:54.609Z,10.61
2023-03-19T08:19:54.599Z,10.64
2023-03-19T08:20:54.595Z,10.59
2023-03-19T08:21:54.587Z,10.59
2023-03-19T08:22:54.587Z,10.63
2023-03-19T08:23:54.581Z,10.71
2023-03-19T08:24:54.578Z,10.64
2023-03-19T08:25:54.580Z,10.69
2023-03-19T08:26:54.597Z,10.53
2023-03-19T08:27:54.571Z,10.68
2023-03-19T08:28:54.564Z,10.67
2023-03-19T08:29:54.585Z,10.72
2023-03-19T08:30:54.601Z,10.64
2023-03-19T08:31:54.557Z,10.54
2023-03-19T08:32:54.616Z,10.72
2023-03-19T08:33:54.548Z,10.76
2023-03-19T08:34:54.548Z,10.68
2023-03-19T08:35:54.696Z,10.69
2023-03-19T08:36:54.555Z,10.72
2023-03-19T08:37:54.562Z,10.72
2023-03-19T08:38:54.531Z,10.72
2023-03-19T08:39:54.521Z,10.76
2023-03-19T08:40:54.522Z,10.75
2023-03-19T08:41:54.518Z,10.93
2023-03-19T08:42:54.883Z,10.86
2023-03-19T08:43:54.509Z,10.92
2023-03-19T08:44:54.511Z,10.96
2023-03-19T08:45:54.601Z,10.84
2023-03-19T08:46:54.709Z,10.99
2023-03-19T08:47:54.497Z,10.93
2023-03-19T08:48:54.500Z,10.94
2023-03-19T08:49:54.488Z,11.07
2023-03-19T08:50:54.487Z,11.10
2023-03-19T08:51:54.483Z,11.02
2023-03-19T08:52:54.482Z,11.07
2023-03-19T08:53:54.474Z,11.10
2023-03-19T08:54:54.478Z,11.11
2023-03-19T08:55:54.471Z,11.17
2023-03-19T08:56:54.478Z,11.18
2023-03-19T08:57:54.471Z,11.15
2023-03-19T08:58:54.492Z,11.30
2023-03-19T08:59:54.457Z,11.32
2023-03-19T09:00:54.454Z,11.36
2023-03-19T09:01:54.552Z,11.45
2023-03-19T09:02:54.444Z,11.45
2023-03-19T09:03:54.443Z,11.50
2023-03-19T09:04:54.538Z,11.55
2023-03-19T09:05:54.434Z,11.55
2023-03-19T09:06:54.468Z,11.62
2023-03-19T09:07:54.437Z,11.57
2023-03-19T09:08:54.432Z,11.62
2023-03-19T09:09:54.441Z,11.55
2023-03-19T09:10:54.474Z,11.66
2023-03-19T09:11:54.421Z,11.65
2023-03-19T09:12:54.413Z,11.72
2023-03-19T09:13:54.409Z,11.68
2023-03-19T09:14:54.425Z,11.66
2023-03-19T09:15:54.452Z,11.65
2023-03-19T09:16:54.413Z,11.77
2023-03-19T09:17:54.400Z,11.73
2023-03-19T09:18:54.394Z,11.72
2023-03-19T09:19:54.391Z,11.75
2023-03-19T09:20:54.419Z,11.83
2023-03-19T09:21:54.384Z,11.78
2023-03-19T09:22:54.384Z,11.75
2023-03-19T09:23:54.378Z,11.78
2023-03-19T09:24:54.374Z,11.86
2023-03-19T09:25:54.367Z,11.83
2023-03-19T09:26:54.369Z,11.80
2023-03-19T09:27:54.366Z,11.88
2023-03-19T09:28:54.363Z,11.91
2023-03-19T09:29:54.360Z,11.84
2023-03-19T09:30:54.456Z,11.97
2023-03-19T09:31:54.352Z,11.94
2023-03-19T09:32:54.444Z,11.83
2023-03-19T09:33:54.352Z,11.86
2023-03-19T09:34:54.345Z,11.87
2023-03-19T09:35:54.376Z,12.06
2023-03-19T09:36:54.339Z,11.97
2023-03-19T09:37:54.336Z,12.07
2023-03-19T09:38:54.334Z,12.04
2023-03-19T09:39:54.329Z,12.02
2023-03-19T09:40:54.325Z,12.15
2023-03-19T09:41:54.321Z,12.07
2023-03-19T09:42:54.471Z,12.10
2023-03-19T09:43:54.325Z,12.10
2023-03-19T09:44:54.315Z,12.07
2023-03-19T09:45:54.308Z,12.22
2023-03-19T09:46:54.457Z,12.25
2023-03-19T09:47:54.301Z,12.21
2023-03-19T09:48:54.302Z,12.25
2023-03-19T09:49:54.294Z,12.25
2023-03-19T09:50:54.295Z,12.29
2023-03-19T09:51:54.298Z,12.21
2023-03-19T09:52:54.298Z,12.31
2023-03-19T09:53:54.302Z,12.22
2023-03-19T09:54:54.289Z,12.25
2023-03-19T09:55:54.278Z,12.24
2023-03-19T09:56:54.283Z,12.27
2023-03-19T09:57:54.271Z,12.27
2023-03-19T09:58:54.273Z,12.25
2023-03-19T09:59:54.279Z,12.31
2023-03-19T10:00:54.274Z,12.31
2023-03-19T10:01:54.327Z,12.35
2023-03-19T10:02:54.281Z,12.37
2023-03-19T10:03:54.323Z,12.36
2023-03-19T10:04:54.257Z,12.39
2023-03-19T10:05:54.253Z,12.32
2023-03-19T10:06:54.253Z,12.31
2023-03-19T10:07:54.251Z,12.28
2023-03-19T10:08:54.253Z,12.35
2023-03-19T10:09:54.240Z,12.37
2023-03-19T10:10:54.236Z,12.36
2023-03-19T10:11:54.240Z,12.32
2023-03-19T10:12:54.234Z,12.27
2023-03-19T10:13:54.222Z,12.27
2023-03-19T10:14:54.221Z,12.32
2023-03-19T10:15:54.253Z,12.21
2023-03-19T10:16:54.230Z,12.24
2023-03-19T10:17:54.214Z,12.29
2023-03-19T10:18:54.714Z,12.29
2023-03-19T10:19:54.207Z,12.25
2023-03-19T10:20:54.206Z,12.21
2023-03-19T10:21:54.200Z,12.27
2023-03-19T10:22:54.198Z,12.31
2023-03-19T10:23:54.197Z,12.35
2023-03-19T10:24:54.188Z,12.28
2023-03-19T10:25:54.189Z,12.31
2023-03-19T10:26:54.189Z,12.37
2023-03-19T10:27:54.184Z,12.29
2023-03-19T10:28:54.181Z,12.31
2023-03-19T10:29:54.179Z,12.36
2023-03-19T10:30:55.527Z,12.25
2023-03-19T10:31:54.251Z,12.29
2023-03-19T10:32:54.287Z,12.24
2023-03-19T10:33:54.167Z,12.22
2023-03-19T10:34:54.195Z,12.24
2023-03-19T10:35:54.191Z,12.25
2023-03-19T10:36:54.159Z,12.25
2023-03-19T10:37:54.158Z,12.20
2023-03-19T10:38:54.166Z,12.31
2023-03-19T10:39:54.150Z,12.29
2023-03-19T10:40:54.150Z,12.24
2023-03-19T10:41:54.157Z,12.28
2023-03-19T10:42:54.150Z,12.22
2023-03-19T10:43:54.145Z,12.22
2023-03-19T10:44:54.143Z,12.29
2023-03-19T10:45:54.282Z,12.25
2023-03-19T10:46:54.136Z,12.22
2023-03-19T10:47:54.128Z,12.22
2023-03-19T10:48:54.123Z,12.24
2023-03-19T10:49:54.124Z,12.22
2023-03-19T10:50:54.145Z,12.27
2023-03-19T10:51:54.118Z,12.18
2023-03-19T10:52:54.128Z,12.09
2023-03-19T10:53:54.128Z,12.13
2023-03-19T10:54:55.285Z,12.18
2023-03-19T10:55:54.109Z,12.09
2023-03-19T10:56:54.102Z,12.12
2023-03-19T10:57:54.129Z,12.10
2023-03-19T10:58:54.097Z,12.17
2023-03-19T10:59:54.112Z,12.07
2023-03-19T11:00:54.142Z,12.10
2023-03-19T11:01:54.096Z,12.15
2023-03-19T11:02:54.095Z,12.15
2023-03-19T11:03:54.118Z,12.10
2023-03-19T11:04:54.077Z,12.15
2023-03-19T11:05:54.106Z,12.12
2023-03-19T11:06:54.099Z,12.10
2023-03-19T11:07:54.082Z,12.13
2023-03-19T11:08:54.065Z,12.13
2023-03-19T11:09:54.412Z,12.17
2023-03-19T11:10:54.062Z,12.20
2023-03-19T11:11:54.061Z,12.20
2023-03-19T11:12:54.057Z,12.21
2023-03-19T11:13:54.048Z,12.20
2023-03-19T11:14:54.046Z,12.17
2023-03-19T11:15:54.045Z,12.12
2023-03-19T11:16:54.095Z,12.10
2023-03-19T11:17:54.038Z,12.13
2023-03-19T11:18:54.036Z,12.07
2023-03-19T11:19:54.037Z,12.10
2023-03-19T11:20:54.028Z,12.09
2023-03-19T11:21:54.025Z,12.07
2023-03-19T11:22:54.045Z,12.09
2023-03-19T11:23:54.021Z,12.09
2023-03-19T11:24:54.017Z,12.13
2023-03-19T11:25:54.015Z,12.09
2023-03-19T11:26:54.013Z,12.13
2023-03-19T11:27:54.008Z,12.12
2023-03-19T11:28:54.001Z,12.13
2023-03-19T11:29:54.015Z,12.10
2023-03-19T11:30:54.005Z,12.12
2023-03-19T11:31:54.044Z,12.12
2023-03-19T11:32:54.095Z,12.18
2023-03-19T11:33:53.996Z,12.24
2023-03-19T11:34:54.068Z,12.13
2023-03-19T11:35:54.088Z,12.13
2023-03-19T11:36:53.980Z,12.15
2023-03-19T11:37:53.975Z,12.12
2023-03-19T11:38:53.998Z,12.12
2023-03-19T11:39:53.972Z,12.10
2023-03-19T11:40:53.968Z,12.10
2023-03-19T11:41:54.049Z,12.13
2023-03-19T11:42:53.982Z,12.15
2023-03-19T11:43:53.958Z,12.09
2023-03-19T11:44:53.958Z,12.12
2023-03-19T11:45:53.963Z,12.10
2023-03-19T11:46:53.952Z,12.09
2023-03-19T11:47:53.953Z,12.07
2023-03-19T11:48:53.948Z,12.10
2023-03-19T11:49:53.944Z,12.04
2023-03-19T11:50:53.939Z,12.00
2023-03-19T11:51:53.939Z,12.04
2023-03-19T11:52:53.933Z,12.12
2023-03-19T11:54:53.951Z,12.00
2023-03-19T11:55:53.938Z,11.97
2023-03-19T11:56:53.923Z,11.95
2023-03-19T11:57:53.919Z,11.86
2023-03-19T11:58:53.924Z,11.97
2023-03-19T11:59:53.916Z,12.09
2023-03-19T12:00:53.922Z,12.15
2023-03-19T12:01:53.909Z,12.12
2023-03-19T12:02:53.908Z,12.15
2023-03-19T12:03:53.938Z,12.13
2023-03-19T12:04:53.901Z,12.20
2023-03-19T12:05:53.896Z,12.17
2023-03-19T12:06:53.980Z,12.12
2023-03-19T12:07:53.892Z,12.17
2023-03-19T12:08:53.891Z,12.18
2023-03-19T12:09:53.891Z,12.24
2023-03-19T12:10:53.918Z,12.20
2023-03-19T12:11:53.889Z,12.20
2023-03-19T12:12:53.878Z,12.21
2023-03-19T12:13:53.878Z,12.20
2023-03-19T12:14:53.873Z,12.24
2023-03-19T12:15:53.897Z,12.10
2023-03-19T12:16:53.941Z,12.09
2023-03-19T12:17:53.863Z,12.10
2023-03-19T12:18:53.869Z,12.13
2023-03-19T12:19:53.860Z,12.04
2023-03-19T12:20:53.855Z,12.12
2023-03-19T12:21:53.856Z,12.02
2023-03-19T12:22:53.865Z,11.94
2023-03-19T12:23:53.852Z,11.94
2023-03-19T12:24:53.848Z,12.00
2023-03-19T12:25:53.839Z,11.87
2023-03-19T12:26:53.957Z,11.86
2023-03-19T12:27:53.834Z,11.90
2023-03-19T12:28:53.836Z,11.86
2023-03-19T12:29:53.844Z,11.80
2023-03-19T12:30:53.877Z,11.78
2023-03-19T12:31:53.819Z,11.77
2023-03-19T12:32:53.972Z,11.86
2023-03-19T12:33:53.812Z,11.78
2023-03-19T12:34:53.817Z,11.77
2023-03-19T12:35:53.826Z,11.75
2023-03-19T12:36:53.946Z,11.81
2023-03-19T12:37:53.799Z,11.80
2023-03-19T12:38:53.804Z,11.75
2023-03-19T12:39:53.794Z,11.73
2023-03-19T12:40:53.799Z,11.81
2023-03-19T12:41:53.791Z,11.81
2023-03-19T12:42:53.809Z,11.75
2023-03-19T12:43:53.780Z,11.78
2023-03-19T12:44:53.781Z,11.81
2023-03-19T12:45:53.783Z,11.72
2023-03-19T12:46:53.862Z,11.83
2023-03-19T12:47:53.776Z,11.81
2023-03-19T12:48:53.778Z,11.83
2023-03-19T12:49:53.771Z,11.88
2023-03-19T12:50:53.776Z,11.95
2023-03-19T12:51:53.782Z,11.88
2023-03-19T12:52:53.757Z,11.97
2023-03-19T12:53:53.766Z,12.13
2023-03-19T12:54:53.746Z,12.12
2023-03-19T12:55:53.754Z,12.12
2023-03-19T12:56:53.752Z,12.21
2023-03-19T12:57:53.744Z,12.25
2023-03-19T12:58:53.822Z,12.40
2023-03-19T12:59:53.740Z,12.42
2023-03-19T13:00:53.738Z,12.39
2023-03-19T13:01:53.840Z,12.37
2023-03-19T13:02:53.816Z,12.36
2023-03-19T13:03:53.727Z,12.32
2023-03-19T13:04:53.797Z,12.37
2023-03-19T13:05:53.718Z,12.36
2023-03-19T13:06:53.722Z,12.35
2023-03-19T13:07:53.722Z,12.35
2023-03-19T13:08:53.715Z,12.25
2023-03-19T13:09:53.707Z,12.25
2023-03-19T13:10:53.708Z,12.27
2023-03-19T13:13:53.699Z,12.07
2023-03-19T13:14:53.799Z,12.13
2023-03-19T13:15:54.507Z,12.06
2023-03-19T13:16:53.688Z,12.07
2023-03-19T13:17:53.683Z,12.12
2023-03-19T13:19:53.679Z,12.13
2023-03-19T13:20:53.681Z,12.07
2023-03-19T13:21:53.673Z,12.10
2023-03-19T13:22:53.674Z,12.09
2023-03-19T13:23:53.670Z,12.10